DAY weather

James M Cox Dayton International Airport
Dayton, Ohio, United States

Public forecast

Using degrees Fahrenheit for public forecast. Weather courtesy of forecast.io.

Current aviation weather report (METAR) for James M Cox Dayton International Airport

Retrieved 2019/10/16 06:19 UTC (0 seconds ago):

KDAY 160619Z 19007KT 10SM BKN012 OVC090 17/14 A2974 RMK AO2 T01670144

Aviation forecast (TAF) for James M Cox Dayton International Airport

Retrieved 2019/10/16 06:45 UTC (0 seconds ago):

TAF KDAY 160540Z 1606/1706 27012KT 5SM -SHRA SCT020 OVC080 FM160800 30016G25KT P6SM -SHRA OVC012 FM161100 29014G26KT P6SM SCT020 BKN040 FM161400 29015G27KT P6SM OVC024 FM170100 29016G30KT P6SM OVC060